sensor_id;sensor_type;location;lat;lon;timestamp;pressure;altitude;pressure_sealevel;temperature;humidity
67931;BME280;63902;52.000;5.954;2023-08-06T00:00:52;100069.56;;;14.15;100.00
67931;BME280;63902;52.000;5.954;2023-08-06T00:01:53;100071.25;;;14.16;100.00
67931;BME280;63902;52.000;5.954;2023-08-06T00:02:54;100073.94;;;14.16;100.00
67931;BME280;63902;52.000;5.954;2023-08-06T00:03:55;100066.91;;;14.15;100.00
67931;BME280;63902;52.000;5.954;2023-08-06T00:04:55;100069.56;;;14.15;100.00
67931;BME280;63902;52.000;5.954;2023-08-06T00:05:56;100070.41;;;14.15;100.00
67931;BME280;63902;52.000;5.954;2023-08-06T00:06:56;100067.75;;;14.15;100.00
67931;BME280;63902;52.000;5.954;2023-08-06T00:07:57;100076.59;;;14.16;100.00
67931;BME280;63902;52.000;5.954;2023-08-06T00:08:57;100073.06;;;14.15;100.00
67931;BME280;63902;52.000;5.954;2023-08-06T00:09:58;100065.94;;;14.16;100.00
67931;BME280;63902;52.000;5.954;2023-08-06T00:10:58;100076.59;;;14.16;100.00
67931;BME280;63902;52.000;5.954;2023-08-06T00:11:59;100068.59;;;14.16;100.00
67931;BME280;63902;52.000;5.954;2023-08-06T00:12:59;100064.22;;;14.15;100.00
67931;BME280;63902;52.000;5.954;2023-08-06T00:14:00;100068.69;;;14.14;100.00
67931;BME280;63902;52.000;5.954;2023-08-06T00:15:00;100070.28;;;14.17;100.00
67931;BME280;63902;52.000;5.954;2023-08-06T00:16:11;100067.63;;;14.17;100.00
67931;BME280;63902;52.000;5.954;2023-08-06T00:17:11;100064.22;;;14.15;100.00
67931;BME280;63902;52.000;5.954;2023-08-06T00:18:13;100064.22;;;14.15;100.00
67931;BME280;63902;52.000;5.954;2023-08-06T00:19:14;100067.09;;;14.12;100.00
67931;BME280;63902;52.000;5.954;2023-08-06T00:20:15;100066.91;;;14.15;100.00
67931;BME280;63902;52.000;5.954;2023-08-06T00:21:15;100068.59;;;14.16;100.00
67931;BME280;63902;52.000;5.954;2023-08-06T00:22:16;100067.63;;;14.17;100.00
67931;BME280;63902;52.000;5.954;2023-08-06T00:23:16;100064.97;;;14.17;100.00
67931;BME280;63902;52.000;5.954;2023-08-06T00:24:17;100063.03;;;14.19;100.00
67931;BME280;63902;52.000;5.954;2023-08-06T00:25:17;100059.53;;;14.18;100.00
67931;BME280;63902;52.000;5.954;2023-08-06T00:26:18;100062.19;;;14.18;100.00
67931;BME280;63902;52.000;5.954;2023-08-06T00:27:18;100062.28;;;14.17;100.00
67931;BME280;63902;52.000;5.954;2023-08-06T00:28:19;100059.63;;;14.17;100.00
67931;BME280;63902;52.000;5.954;2023-08-06T00:29:19;100061.44;;;14.16;100.00
67931;BME280;63902;52.000;5.954;2023-08-06T00:30:20;100067.75;;;14.15;100.00
67931;BME280;63902;52.000;5.954;2023-08-06T00:31:20;100058.91;;;14.15;100.00
67931;BME280;63902;52.000;5.954;2023-08-06T00:32:22;100059.84;;;14.14;100.00
67931;BME280;63902;52.000;5.954;2023-08-06T00:33:24;100059.84;;;14.14;100.00
67931;BME280;63902;52.000;5.954;2023-08-06T00:34:24;100059.84;;;14.14;100.00
67931;BME280;63902;52.000;5.954;2023-08-06T00:35:25;100056.31;;;14.13;100.00
67931;BME280;63902;52.000;5.954;2023-08-06T00:36:25;100064.22;;;14.15;100.00
67931;BME280;63902;52.000;5.954;2023-08-06T00:37:26;100060.69;;;14.14;100.00
67931;BME280;63902;52.000;5.954;2023-08-06T00:38:26;100062.50;;;14.14;100.00
67931;BME280;63902;52.000;5.954;2023-08-06T00:39:27;100061.56;;;14.15;100.00
67931;BME280;63902;52.000;5.954;2023-08-06T00:40:27;100063.34;;;14.14;100.00
67931;BME280;63902;52.000;5.954;2023-08-06T00:41:28;100065.16;;;14.14;100.00
67931;BME280;63902;52.000;5.954;2023-08-06T00:42:28;100062.50;;;14.14;100.00
67931;BME280;63902;52.000;5.954;2023-08-06T00:43:29;100065.16;;;14.14;100.00
67931;BME280;63902;52.000;5.954;2023-08-06T00:44:30;100056.31;;;14.13;100.00
67931;BME280;63902;52.000;5.954;2023-08-06T00:45:33;100058.97;;;14.13;100.00
67931;BME280;63902;52.000;5.954;2023-08-06T00:46:34;100055.47;;;14.13;100.00
67931;BME280;63902;52.000;5.954;2023-08-06T00:47:35;100051.09;;;14.12;100.00
67931;BME280;63902;52.000;5.954;2023-08-06T00:48:37;100055.47;;;14.13;100.00
67931;BME280;63902;52.000;5.954;2023-08-06T00:49:38;100060.88;;;14.11;100.00
67931;BME280;63902;52.000;5.954;2023-08-06T00:50:39;100057.38;;;14.10;100.00
67931;BME280;63902;52.000;5.954;2023-08-06T00:51:39;100044.56;;;14.03;100.00
67931;BME280;63902;52.000;5.954;2023-08-06T00:52:40;100055.69;;;14.09;100.00
67931;BME280;63902;52.000;5.954;2023-08-06T00:53:41;100062.84;;;14.09;100.00
67931;BME280;63902;52.000;5.954;2023-08-06T00:54:42;100055.78;;;14.08;100.00
67931;BME280;63902;52.000;5.954;2023-08-06T00:55:44;100061.94;;;14.08;100.00
67931;BME280;63902;52.000;5.954;2023-08-06T00:56:45;100061.94;;;14.08;100.00
67931;BME280;63902;52.000;5.954;2023-08-06T00:57:47;100060.25;;;14.07;100.00
67931;BME280;63902;52.000;5.954;2023-08-06T00:58:48;100060.16;;;14.09;100.00
67931;BME280;63902;52.000;5.954;2023-08-06T00:59:49;100058.56;;;14.06;100.00
67931;BME280;63902;52.000;5.954;2023-08-06T01:00:49;100061.09;;;14.08;100.00
67931;BME280;63902;52.000;5.954;2023-08-06T01:01:50;100067.28;;;14.08;100.00
67931;BME280;63902;52.000;5.954;2023-08-06T01:02:51;100064.75;;;14.07;100.00
67931;BME280;63902;52.000;5.954;2023-08-06T01:03:54;100062.28;;;14.04;100.00
67931;BME280;63902;52.000;5.954;2023-08-06T01:04:54;100067.72;;;14.02;100.00
67931;BME280;63902;52.000;5.954;2023-08-06T01:05:55;100073.88;;;14.03;100.00
67931;BME280;63902;52.000;5.954;2023-08-06T01:07:03;100067.81;;;14.01;100.00
67931;BME280;63902;52.000;5.954;2023-08-06T01:08:19;100066.31;;;13.97;100.00
67931;BME280;63902;52.000;5.954;2023-08-06T01:09:31;100066.44;;;13.95;100.00
67931;BME280;63902;52.000;5.954;2023-08-06T01:10:43;100068.13;;;13.96;100.00
67931;BME280;63902;52.000;5.954;2023-08-06T01:11:49;100065.75;;;13.92;100.00
67931;BME280;63902;52.000;5.954;2023-08-06T01:13:00;100065.75;;;13.92;100.00
67931;BME280;63902;52.000;5.954;2023-08-06T01:14:08;100067.56;;;13.91;100.00
67931;BME280;63902;52.000;5.954;2023-08-06T01:15:17;100065.88;;;13.90;100.00
67931;BME280;63902;52.000;5.954;2023-08-06T01:16:21;100067.56;;;13.91;100.00
67931;BME280;63902;52.000;5.954;2023-08-06T01:17:23;100050.94;;;13.87;100.00
67931;BME280;63902;52.000;5.954;2023-08-06T01:18:24;100064.16;;;13.89;100.00
67931;BME280;63902;52.000;5.954;2023-08-06T01:19:26;100057.97;;;13.88;100.00
67931;BME280;63902;52.000;5.954;2023-08-06T01:20:29;100057.13;;;13.88;100.00
67931;BME280;63902;52.000;5.954;2023-08-06T01:21:30;100050.31;;;13.84;100.00
67931;BME280;63902;52.000;5.954;2023-08-06T01:22:30;100064.16;;;13.89;100.00
67931;BME280;63902;52.000;5.954;2023-08-06T01:23:31;100060.53;;;13.90;100.00
67931;BME280;63902;52.000;5.954;2023-08-06T01:24:31;100058.81;;;13.89;100.00
67931;BME280;63902;52.000;5.954;2023-08-06T01:25:34;100052.75;;;13.87;100.00
67931;BME280;63902;52.000;5.954;2023-08-06T01:26:38;100059.03;;;13.86;100.00
67931;BME280;63902;52.000;5.954;2023-08-06T01:27:46;100053.69;;;13.86;100.00
67931;BME280;63902;52.000;5.954;2023-08-06T01:28:52;100056.34;;;13.86;100.00
67931;BME280;63902;52.000;5.954;2023-08-06T01:30:02;100052.97;;;13.84;100.00
67931;BME280;63902;52.000;5.954;2023-08-06T01:31:04;100051.03;;;13.86;100.00
67931;BME280;63902;52.000;5.954;2023-08-06T01:32:08;100053.59;;;13.87;100.00
67931;BME280;63902;52.000;5.954;2023-08-06T01:33:15;100046.47;;;13.88;100.00
67931;BME280;63902;52.000;5.954;2023-08-06T01:34:17;100048.16;;;13.89;100.00
67931;BME280;63902;52.000;5.954;2023-08-06T01:35:19;100047.31;;;13.88;100.00
67931;BME280;63902;52.000;5.954;2023-08-06T01:36:21;100049.13;;;13.88;100.00
67931;BME280;63902;52.000;5.954;2023-08-06T01:37:22;100047.44;;;13.87;100.00
67931;BME280;63902;52.000;5.954;2023-08-06T01:38:24;100051.78;;;13.88;100.00
67931;BME280;63902;52.000;5.954;2023-08-06T01:39:25;100043.78;;;13.88;100.00
67931;BME280;63902;52.000;5.954;2023-08-06T01:40:25;100044.75;;;13.87;100.00
67931;BME280;63902;52.000;5.954;2023-08-06T01:41:26;100043.03;;;13.86;100.00
67931;BME280;63902;52.000;5.954;2023-08-06T01:42:26;100050.31;;;13.84;100.00
67931;BME280;63902;52.000;5.954;2023-08-06T01:43:27;100041.53;;;13.82;100.00
67931;BME280;63902;52.000;5.954;2023-08-06T01:44:27;100048.47;;;13.84;100.00
67931;BME280;63902;52.000;5.954;2023-08-06T01:45:28;100044.22;;;13.82;100.00
67931;BME280;63902;52.000;5.954;2023-08-06T01:46:29;100031.28;;;13.76;100.00
67931;BME280;63902;52.000;5.954;2023-08-06T01:47:29;100046.75;;;13.83;100.00
67931;BME280;63902;52.000;5.954;2023-08-06T01:48:30;100039.94;;;13.79;100.00
67931;BME280;63902;52.000;5.954;2023-08-06T01:49:30;100040.47;;;13.84;100.00
67931;BME280;63902;52.000;5.954;2023-08-06T01:50:31;100045.69;;;13.86;100.00
67931;BME280;63902;52.000;5.954;2023-08-06T01:51:33;100045.59;;;13.87;100.00
67931;BME280;63902;52.000;5.954;2023-08-06T01:52:33;100044.75;;;13.87;100.00
67931;BME280;63902;52.000;5.954;2023-08-06T01:53:34;100041.25;;;13.86;100.00
67931;BME280;63902;52.000;5.954;2023-08-06T01:54:34;100049.13;;;13.88;100.00
67931;BME280;63902;52.000;5.954;2023-08-06T01:55:35;100046.47;;;13.88;100.00
67931;BME280;63902;52.000;5.954;2023-08-06T01:56:35;100050.81;;;13.89;100.00
67931;BME280;63902;52.000;5.954;2023-08-06T01:57:36;100045.41;;;13.91;100.00
67931;BME280;63902;52.000;5.954;2023-08-06T01:58:36;100046.25;;;13.91;100.00
67931;BME280;63902;52.000;5.954;2023-08-06T01:59:37;100047.09;;;13.92;100.00
67931;BME280;63902;52.000;5.954;2023-08-06T02:00:37;100047.09;;;13.92;100.00
67931;BME280;63902;52.000;5.954;2023-08-06T02:01:38;100037.50;;;13.89;100.00
67931;BME280;63902;52.000;5.954;2023-08-06T02:02:38;100048.91;;;13.91;100.00
67931;BME280;63902;52.000;5.954;2023-08-06T02:03:39;100045.41;;;13.91;100.00
67931;BME280;63902;52.000;5.954;2023-08-06T02:04:39;100045.31;;;13.92;100.00
67931;BME280;63902;52.000;5.954;2023-08-06T02:05:40;100042.66;;;13.92;100.00
67931;BME280;63902;52.000;5.954;2023-08-06T02:06:42;100038.16;;;13.93;100.00
67931;BME280;63902;52.000;5.954;2023-08-06T02:07:42;100037.31;;;13.92;100.00
67931;BME280;63902;52.000;5.954;2023-08-06T02:08:43;100039.22;;;13.90;100.00
67931;BME280;63902;52.000;5.954;2023-08-06T02:09:43;100044.34;;;13.93;100.00
67931;BME280;63902;52.000;5.954;2023-08-06T02:10:44;100039.84;;;13.94;100.00
67931;BME280;63902;52.000;5.954;2023-08-06T02:11:45;100042.44;;;13.95;100.00
67931;BME280;63902;52.000;5.954;2023-08-06T02:12:45;100037.09;;;13.95;100.00
67931;BME280;63902;52.000;5.954;2023-08-06T02:13:46;100045.09;;;13.95;100.00
67931;BME280;63902;52.000;5.954;2023-08-06T02:14:46;100042.44;;;13.95;100.00
67931;BME280;63902;52.000;5.954;2023-08-06T02:15:47;100052.13;;;13.96;100.00
67931;BME280;63902;52.000;5.954;2023-08-06T02:16:47;100042.44;;;13.95;100.00
67931;BME280;63902;52.000;5.954;2023-08-06T02:17:48;100048.50;;;13.97;100.00
67931;BME280;63902;52.000;5.954;2023-08-06T02:18:48;100044.03;;;13.98;100.00
67931;BME280;63902;52.000;5.954;2023-08-06T02:19:49;100043.16;;;13.97;100.00
67931;BME280;63902;52.000;5.954;2023-08-06T02:20:55;100036.97;;;13.97;100.00
67931;BME280;63902;52.000;5.954;2023-08-06T02:21:57;100043.28;;;13.96;100.00
67931;BME280;63902;52.000;5.954;2023-08-06T02:22:57;100037.94;;;13.96;100.00
67931;BME280;63902;52.000;5.954;2023-08-06T02:23:58;100036.13;;;13.96;100.00
67931;BME280;63902;52.000;5.954;2023-08-06T02:24:58;100038.81;;;13.96;100.00
67931;BME280;63902;52.000;5.954;2023-08-06T02:26:00;100034.44;;;13.95;100.00
67931;BME280;63902;52.000;5.954;2023-08-06T02:27:01;100036.13;;;13.96;100.00
67931;BME280;63902;52.000;5.954;2023-08-06T02:28:01;100033.47;;;13.96;100.00
67931;BME280;63902;52.000;5.954;2023-08-06T02:29:02;100027.28;;;13.96;100.00
67931;BME280;63902;52.000;5.954;2023-08-06T02:30:03;100027.28;;;13.96;100.00
67931;BME280;63902;52.000;5.954;2023-08-06T02:31:04;100030.81;;;13.96;100.00
67931;BME280;63902;52.000;5.954;2023-08-06T02:32:05;100028.97;;;13.97;100.00
67931;BME280;63902;52.000;5.954;2023-08-06T02:33:06;100022.81;;;13.96;100.00
67931;BME280;63902;52.000;5.954;2023-08-06T02:34:06;100028.97;;;13.97;100.00
67931;BME280;63902;52.000;5.954;2023-08-06T02:35:07;100018.44;;;13.95;100.00
67931;BME280;63902;52.000;5.954;2023-08-06T02:36:08;100024.50;;;13.97;100.00
67931;BME280;63902;52.000;5.954;2023-08-06T02:37:10;100016.50;;;13.97;100.00
67931;BME280;63902;52.000;5.954;2023-08-06T02:38:10;100019.16;;;13.97;100.00
67931;BME280;63902;52.000;5.954;2023-08-06T02:39:11;100012.13;;;13.96;100.00
67931;BME280;63902;52.000;5.954;2023-08-06T02:40:11;100018.22;;;13.98;100.00
67931;BME280;63902;52.000;5.954;2023-08-06T02:41:11;100017.25;;;13.99;100.00
67931;BME280;63902;52.000;5.954;2023-08-06T02:42:12;100022.72;;;13.98;100.00
67931;BME280;63902;52.000;5.954;2023-08-06T02:43:12;100023.56;;;13.98;100.00
67931;BME280;63902;52.000;5.954;2023-08-06T02:44:13;100015.56;;;13.98;100.00
67931;BME280;63902;52.000;5.954;2023-08-06T02:45:14;100016.41;;;13.99;100.00
67931;BME280;63902;52.000;5.954;2023-08-06T02:46:15;100019.91;;;13.99;100.00
67931;BME280;63902;52.000;5.954;2023-08-06T02:47:15;100012.91;;;13.98;100.00
67931;BME280;63902;52.000;5.954;2023-08-06T02:48:16;100017.47;;;13.96;100.00
67931;BME280;63902;52.000;5.954;2023-08-06T02:49:16;100019.16;;;13.97;100.00
67931;BME280;63902;52.000;5.954;2023-08-06T02:50:17;100013.84;;;13.97;100.00
67931;BME280;63902;52.000;5.954;2023-08-06T02:51:17;100012.97;;;13.97;100.00
67931;BME280;63902;52.000;5.954;2023-08-06T02:52:19;100004.34;;;13.93;100.00
67931;BME280;63902;52.000;5.954;2023-08-06T02:53:20;100000.16;;;13.89;100.00
67931;BME280;63902;52.000;5.954;2023-08-06T02:54:20;100012.03;;;13.98;100.00
67931;BME280;63902;52.000;5.954;2023-08-06T02:55:21;100006.03;;;13.94;100.00
67931;BME280;63902;52.000;5.954;2023-08-06T02:56:21;100012.91;;;13.98;100.00
67931;BME280;63902;52.000;5.954;2023-08-06T02:57:22;100010.22;;;13.98;100.00
67931;BME280;63902;52.000;5.954;2023-08-06T02:58:22;100012.91;;;13.98;100.00
67931;BME280;63902;52.000;5.954;2023-08-06T02:59:23;100011.06;;;13.99;100.00
67931;BME280;63902;52.000;5.954;2023-08-06T03:00:23;100010.22;;;13.98;100.00
67931;BME280;63902;52.000;5.954;2023-08-06T03:01:24;100011.94;;;13.99;100.00
67931;BME280;63902;52.000;5.954;2023-08-06T03:02:24;100011.06;;;13.99;100.00
67931;BME280;63902;52.000;5.954;2023-08-06T03:03:25;100009.38;;;13.98;100.00
67931;BME280;63902;52.000;5.954;2023-08-06T03:04:25;100015.56;;;13.98;100.00
67931;BME280;63902;52.000;5.954;2023-08-06T03:05:26;100010.31;;;13.97;100.00
67931;BME280;63902;52.000;5.954;2023-08-06T03:06:26;100004.91;;;13.98;100.00
67931;BME280;63902;52.000;5.954;2023-08-06T03:07:28;100005.09;;;13.95;100.00
67931;BME280;63902;52.000;5.954;2023-08-06T03:08:29;100005.97;;;13.96;100.00
67931;BME280;63902;52.000;5.954;2023-08-06T03:09:29;100005.84;;;13.97;100.00
67931;BME280;63902;52.000;5.954;2023-08-06T03:10:30;100004.13;;;13.96;100.00
67931;BME280;63902;52.000;5.954;2023-08-06T03:11:30;100009.47;;;13.96;100.00
67931;BME280;63902;52.000;5.954;2023-08-06T03:12:31;100005.97;;;13.96;100.00
67931;BME280;63902;52.000;5.954;2023-08-06T03:13:31;99994.19;;;13.85;100.00
67931;BME280;63902;52.000;5.954;2023-08-06T03:14:32;100002.31;;;13.97;100.00
67931;BME280;63902;52.000;5.954;2023-08-06T03:15:32;100004.13;;;13.96;100.00
67931;BME280;63902;52.000;5.954;2023-08-06T03:16:33;100009.47;;;13.96;100.00
67931;BME280;63902;52.000;5.954;2023-08-06T03:17:33;100002.44;;;13.95;100.00
67931;BME280;63902;52.000;5.954;2023-08-06T03:18:34;100005.97;;;13.96;100.00
67931;BME280;63902;52.000;5.954;2023-08-06T03:19:34;99997.13;;;13.95;100.00
67931;BME280;63902;52.000;5.954;2023-08-06T03:20:35;99992.84;;;13.93;100.00
67931;BME280;63902;52.000;5.954;2023-08-06T03:21:35;99998.03;;;13.94;100.00
67931;BME280;63902;52.000;5.954;2023-08-06T03:22:37;100001.56;;;13.95;100.00
67931;BME280;63902;52.000;5.954;2023-08-06T03:23:37;100000.84;;;13.93;100.00
67931;BME280;63902;52.000;5.954;2023-08-06T03:24:38;99995.59;;;13.91;100.00
67931;BME280;63902;52.000;5.954;2023-08-06T03:25:39;100000.84;;;13.93;100.00
67931;BME280;63902;52.000;5.954;2023-08-06T03:26:39;100007.88;;;13.94;100.00
67931;BME280;63902;52.000;5.954;2023-08-06T03:27:39;99998.91;;;13.95;100.00
67931;BME280;63902;52.000;5.954;2023-08-06T03:28:40;100000.72;;;13.94;100.00
67931;BME280;63902;52.000;5.954;2023-08-06T03:29:41;99998.16;;;13.93;100.00
67931;BME280;63902;52.000;5.954;2023-08-06T03:30:41;100002.53;;;13.94;100.00
67931;BME280;63902;52.000;5.954;2023-08-06T03:31:42;99992.84;;;13.93;100.00
67931;BME280;63902;52.000;5.954;2023-08-06T03:32:42;99998.16;;;13.93;100.00
67931;BME280;63902;52.000;5.954;2023-08-06T03:33:43;99993.78;;;13.92;100.00
67931;BME280;63902;52.000;5.954;2023-08-06T03:34:43;99985.25;;;13.86;100.00
67931;BME280;63902;52.000;5.954;2023-08-06T03:35:44;99993.13;;;13.88;100.00
67931;BME280;63902;52.000;5.954;2023-08-06T03:36:44;99998.25;;;13.91;100.00
67931;BME280;63902;52.000;5.954;2023-08-06T03:37:46;99992.94;;;13.91;100.00
67931;BME280;63902;52.000;5.954;2023-08-06T03:38:46;99996.56;;;13.90;100.00
67931;BME280;63902;52.000;5.954;2023-08-06T03:39:47;100008.06;;;13.91;100.00
67931;BME280;63902;52.000;5.954;2023-08-06T03:40:47;99987.06;;;13.86;100.00
67931;BME280;63902;52.000;5.954;2023-08-06T03:41:48;99993.78;;;13.92;100.00
67931;BME280;63902;52.000;5.954;2023-08-06T03:42:48;100000.00;;;13.92;100.00
67931;BME280;63902;52.000;5.954;2023-08-06T03:43:49;99997.31;;;13.92;100.00
67931;BME280;63902;52.000;5.954;2023-08-06T03:44:49;99996.22;;;13.95;100.00
67931;BME280;63902;52.000;5.954;2023-08-06T03:45:50;99991.03;;;13.93;100.00
67931;BME280;63902;52.000;5.954;2023-08-06T03:46:50;99991.88;;;13.94;100.00
67931;BME280;63902;52.000;5.954;2023-08-06T03:47:51;99996.34;;;13.93;100.00
67931;BME280;63902;52.000;5.954;2023-08-06T03:48:51;99992.09;;;13.91;100.00
67931;BME280;63902;52.000;5.954;2023-08-06T03:49:52;99994.75;;;13.91;100.00
67931;BME280;63902;52.000;5.954;2023-08-06T03:50:52;100000.00;;;13.92;100.00
67931;BME280;63902;52.000;5.954;2023-08-06T03:51:53;99998.25;;;13.91;100.00
67931;BME280;63902;52.000;5.954;2023-08-06T03:52:55;99993.78;;;13.92;100.00
67931;BME280;63902;52.000;5.954;2023-08-06T03:53:55;99991.09;;;13.92;100.00
67931;BME280;63902;52.000;5.954;2023-08-06T03:54:56;99993.69;;;13.93;100.00
67931;BME280;63902;52.000;5.954;2023-08-06T03:55:56;99993.69;;;13.93;100.00
67931;BME280;63902;52.000;5.954;2023-08-06T03:56:56;99999.88;;;13.94;100.00
67931;BME280;63902;52.000;5.954;2023-08-06T03:57:57;99997.19;;;13.94;100.00
67931;BME280;63902;52.000;5.954;2023-08-06T03:58:58;99995.38;;;13.94;100.00
67931;BME280;63902;52.000;5.954;2023-08-06T03:59:58;99993.13;;;13.88;100.00
67931;BME280;63902;52.000;5.954;2023-08-06T04:00:59;99989.31;;;13.92;100.00
67931;BME280;63902;52.000;5.954;2023-08-06T04:02:00;99999.88;;;13.94;100.00
67931;BME280;63902;52.000;5.954;2023-08-06T04:03:00;99996.34;;;13.93;100.00
67931;BME280;63902;52.000;5.954;2023-08-06T04:04:01;100000.72;;;13.94;100.00
67931;BME280;63902;52.000;5.954;2023-08-06T04:05:01;99995.38;;;13.94;100.00
67931;BME280;63902;52.000;5.954;2023-08-06T04:06:02;99995.38;;;13.94;100.00
67931;BME280;63902;52.000;5.954;2023-08-06T04:07:03;100000.63;;;13.96;100.00
67931;BME280;63902;52.000;5.954;2023-08-06T04:08:05;99995.38;;;13.94;100.00
67931;BME280;63902;52.000;5.954;2023-08-06T04:09:06;99997.19;;;13.94;100.00
67931;BME280;63902;52.000;5.954;2023-08-06T04:10:07;99991.78;;;13.95;100.00
67931;BME280;63902;52.000;5.954;2023-08-06T04:11:07;99998.81;;;13.96;100.00
67931;BME280;63902;52.000;5.954;2023-08-06T04:12:08;99997.97;;;13.96;100.00
67931;BME280;63902;52.000;5.954;2023-08-06T04:13:08;100002.22;;;13.98;100.00
67931;BME280;63902;52.000;5.954;2023-08-06T04:14:09;99997.00;;;13.97;100.00
67931;BME280;63902;52.000;5.954;2023-08-06T04:15:09;100004.13;;;13.96;100.00
67931;BME280;63902;52.000;5.954;2023-08-06T04:16:10;99999.66;;;13.97;100.00
67931;BME280;63902;52.000;5.954;2023-08-06T04:17:11;99998.81;;;13.96;100.00
67931;BME280;63902;52.000;5.954;2023-08-06T04:18:11;100003.16;;;13.97;100.00
67931;BME280;63902;52.000;5.954;2023-08-06T04:19:12;100008.50;;;13.97;100.00
67931;BME280;63902;52.000;5.954;2023-08-06T04:20:12;99996.13;;;13.96;100.00
67931;BME280;63902;52.000;5.954;2023-08-06T04:21:13;100004.91;;;13.98;100.00
67931;BME280;63902;52.000;5.954;2023-08-06T04:22:13;100003.06;;;13.99;100.00
67931;BME280;63902;52.000;5.954;2023-08-06T04:23:15;100002.09;;;14.00;100.00
67931;BME280;63902;52.000;5.954;2023-08-06T04:24:15;100002.09;;;14.00;100.00
67931;BME280;63902;52.000;5.954;2023-08-06T04:25:16;100006.72;;;13.98;100.00
67931;BME280;63902;52.000;5.954;2023-08-06T04:26:16;100004.78;;;14.00;100.00
67931;BME280;63902;52.000;5.954;2023-08-06T04:27:18;100003.00;;;14.00;100.00
67931;BME280;63902;52.000;5.954;2023-08-06T04:28:19;100000.31;;;14.00;100.00
67931;BME280;63902;52.000;5.954;2023-08-06T04:29:19;100003.00;;;14.00;100.00
67931;BME280;63902;52.000;5.954;2023-08-06T04:30:20;100005.66;;;14.00;100.00
67931;BME280;63902;52.000;5.954;2023-08-06T04:31:21;100002.09;;;14.00;100.00
67931;BME280;63902;52.000;5.954;2023-08-06T04:32:21;100008.31;;;14.00;100.00
67931;BME280;63902;52.000;5.954;2023-08-06T04:33:22;100003.00;;;14.00;100.00
67931;BME280;63902;52.000;5.954;2023-08-06T04:34:22;100005.53;;;14.02;100.00
67931;BME280;63902;52.000;5.954;2023-08-06T04:35:23;100004.69;;;14.01;100.00
67931;BME280;63902;52.000;5.954;2023-08-06T04:36:23;100003.72;;;14.02;100.00
67931;BME280;63902;52.000;5.954;2023-08-06T04:37:24;100001.03;;;14.02;100.00
67931;BME280;63902;52.000;5.954;2023-08-06T04:38:26;100006.38;;;14.02;100.00
67931;BME280;63902;52.000;5.954;2023-08-06T04:39:26;100007.34;;;14.01;100.00
67931;BME280;63902;52.000;5.954;2023-08-06T04:40:27;100005.44;;;14.03;100.00
67931;BME280;63902;52.000;5.954;2023-08-06T04:41:27;100006.28;;;14.04;100.00
67931;BME280;63902;52.000;5.954;2023-08-06T04:42:28;100007.22;;;14.03;100.00
67931;BME280;63902;52.000;5.954;2023-08-06T04:43:28;100014.28;;;14.04;100.00
67931;BME280;63902;52.000;5.954;2023-08-06T04:44:29;100008.09;;;14.03;100.00
67931;BME280;63902;52.000;5.954;2023-08-06T04:45:30;100008.09;;;14.03;100.00
67931;BME280;63902;52.000;5.954;2023-08-06T04:46:30;100000.31;;;14.00;100.00
67931;BME280;63902;52.000;5.954;2023-08-06T04:47:31;100015.13;;;14.04;100.00
67931;BME280;63902;52.000;5.954;2023-08-06T04:48:31;100009.81;;;14.04;100.00
67931;BME280;63902;52.000;5.954;2023-08-06T04:49:32;100011.50;;;14.05;100.00
67931;BME280;63902;52.000;5.954;2023-08-06T04:50:32;100013.22;;;14.06;100.00
67931;BME280;63902;52.000;5.954;2023-08-06T04:51:33;100014.94;;;14.07;100.00
67931;BME280;63902;52.000;5.954;2023-08-06T04:52:33;100018.34;;;14.09;100.00
67931;BME280;63902;52.000;5.954;2023-08-06T04:53:35;100014.72;;;14.10;100.00
67931;BME280;63902;52.000;5.954;2023-08-06T04:54:36;100011.94;;;14.12;100.00
67931;BME280;63902;52.000;5.954;2023-08-06T04:55:36;100015.34;;;14.14;100.00
67931;BME280;63902;52.000;5.954;2023-08-06T04:56:37;100003.19;;;14.10;100.00
67931;BME280;63902;52.000;5.954;2023-08-06T04:57:37;100016.22;;;14.15;100.00
67931;BME280;63902;52.000;5.954;2023-08-06T04:58:38;100012.59;;;14.16;100.00
67931;BME280;63902;52.000;5.954;2023-08-06T04:59:39;100013.44;;;14.16;100.00
67931;BME280;63902;52.000;5.954;2023-08-06T05:00:39;100024.94;;;14.17;100.00
67931;BME280;63902;52.000;5.954;2023-08-06T05:01:40;100010.88;;;14.15;100.00
67931;BME280;63902;52.000;5.954;2023-08-06T05:02:41;100015.16;;;14.17;100.00
67931;BME280;63902;52.000;5.954;2023-08-06T05:03:41;100023.03;;;14.19;100.00
67931;BME280;63902;52.000;5.954;2023-08-06T05:04:42;100022.06;;;14.20;100.00
67931;BME280;63902;52.000;5.954;2023-08-06T05:05:42;100015.66;;;14.22;100.00
67931;BME280;63902;52.000;5.954;2023-08-06T05:06:43;100019.22;;;14.23;100.00
67931;BME280;63902;52.000;5.954;2023-08-06T05:07:45;100024.56;;;14.23;100.00
67931;BME280;63902;52.000;5.954;2023-08-06T05:08:47;100022.72;;;14.23;100.00
67931;BME280;63902;52.000;5.954;2023-08-06T05:09:47;100020.06;;;14.23;100.00
67931;BME280;63902;52.000;5.954;2023-08-06T05:10:48;100016.56;;;14.23;100.00
67931;BME280;63902;52.000;5.954;2023-08-06T05:11:49;100019.22;;;14.23;100.00
67931;BME280;63902;52.000;5.954;2023-08-06T05:12:49;100021.00;;;14.22;100.00
67931;BME280;63902;52.000;5.954;2023-08-06T05:13:50;100014.94;;;14.20;100.00
67931;BME280;63902;52.000;5.954;2023-08-06T05:14:50;100017.28;;;14.25;100.00
67931;BME280;63902;52.000;5.954;2023-08-06T05:15:53;100022.63;;;14.25;100.00